createdAt,value
2018-06-03T00:01:36.943Z,98685.76
2018-06-03T00:04:06.105Z,98686.05
2018-06-03T00:06:35.164Z,98685.64
2018-06-03T00:09:05.371Z,98686.14
2018-06-03T00:11:34.795Z,98678.69
2018-06-03T00:14:03.716Z,98684.39
2018-06-03T00:16:32.714Z,98683.37
2018-06-03T00:19:01.645Z,98675.11
2018-06-03T00:21:41.537Z,98671.22
2018-06-03T00:24:10.599Z,98670.35
2018-06-03T00:26:39.559Z,98675.81
2018-06-03T00:29:08.570Z,98677.10
2018-06-03T00:31:37.629Z,98679.45
2018-06-03T00:34:06.542Z,98672.44
2018-06-03T00:36:46.818Z,98663.48
2018-06-03T00:39:16.893Z,98664.66
2018-06-03T00:41:45.791Z,98661.15
2018-06-03T00:44:14.877Z,98673.14
2018-06-03T00:46:43.839Z,98667.42
2018-06-03T00:49:12.767Z,98662.09
2018-06-03T00:51:41.825Z,98667.81
2018-06-03T00:54:10.780Z,98663.06
2018-06-03T00:56:50.999Z,98655.58
2018-06-03T00:59:19.963Z,98653.55
2018-06-03T01:01:48.927Z,98653.76
2018-06-03T01:04:18.023Z,98664.06
2018-06-03T01:06:46.960Z,98669.84
2018-06-03T01:09:16.429Z,98667.23
2018-06-03T01:11:45.392Z,98664.95
2018-06-03T01:14:14.333Z,98655.73
2018-06-03T01:16:43.266Z,98655.69
2018-06-03T01:19:12.927Z,98650.98
2018-06-03T01:21:41.909Z,98649.10
2018-06-03T01:24:10.929Z,98654.17
2018-06-03T01:26:40.059Z,98664.45
2018-06-03T01:29:09.741Z,98664.47
2018-06-03T01:31:38.746Z,98662.78
2018-06-03T01:34:07.807Z,98657.66
2018-06-03T01:36:37.329Z,98660.06
2018-06-03T01:39:07.719Z,98661.11
2018-06-03T01:41:36.704Z,98656.20
2018-06-03T01:44:05.682Z,98662.27
2018-06-03T01:46:34.696Z,98660.25
2018-06-03T01:49:03.589Z,98656.27
2018-06-03T01:51:32.496Z,98652.94
2018-06-03T01:54:01.431Z,98647.70
2018-06-03T01:56:30.424Z,98642.90
2018-06-03T01:58:59.445Z,98640.17
2018-06-03T02:01:28.647Z,98634.00
2018-06-03T02:03:57.671Z,98640.91
2018-06-03T02:06:26.604Z,98635.66
2018-06-03T02:08:55.664Z,98629.37
2018-06-03T02:11:24.558Z,98627.41
2018-06-03T02:13:53.549Z,98630.75
2018-06-03T02:16:22.563Z,98631.47
2018-06-03T02:18:51.499Z,98628.03
2018-06-03T02:21:20.473Z,98630.84
2018-06-03T02:23:50.619Z,98622.16
2018-06-03T02:26:19.527Z,98626.56
2018-06-03T02:28:48.447Z,98630.73
2018-06-03T02:31:17.457Z,98631.06
2018-06-03T02:33:46.367Z,98632.94
2018-06-03T02:36:15.273Z,98630.84
2018-06-03T02:38:44.371Z,98633.34
2018-06-03T02:41:13.358Z,98635.98
2018-06-03T02:43:42.404Z,98632.73
2018-06-03T02:46:14.414Z,98645.50
2018-06-03T02:48:43.319Z,98647.70
2018-06-03T02:51:12.220Z,98644.34
2018-06-03T02:53:42.244Z,98648.74
2018-06-03T02:56:11.213Z,98641.74
2018-06-03T02:58:40.136Z,98640.80
2018-06-03T03:01:09.172Z,98641.96
2018-06-03T03:03:38.072Z,98638.69
2018-06-03T03:06:06.987Z,98635.25
2018-06-03T03:08:36.110Z,98636.19
2018-06-03T03:11:05.129Z,98641.20
2018-06-03T03:13:34.069Z,98636.92
2018-06-03T03:16:03.051Z,98628.44
2018-06-03T03:18:32.052Z,98641.32
2018-06-03T03:21:01.021Z,98639.02
2018-06-03T03:23:29.964Z,98648.75
2018-06-03T03:25:59.085Z,98642.72
2018-06-03T03:28:28.059Z,98647.41
2018-06-03T03:30:57.100Z,98644.26
2018-06-03T03:33:26.066Z,98635.46
2018-06-03T03:35:55.651Z,98628.20
2018-06-03T03:38:25.336Z,98636.98
2018-06-03T03:40:54.248Z,98640.87
2018-06-03T03:43:23.158Z,98632.81
2018-06-03T03:45:52.103Z,98627.48
2018-06-03T03:48:21.092Z,98631.45
2018-06-03T03:50:50.049Z,98633.62
2018-06-03T03:53:19.116Z,98635.59
2018-06-03T03:55:48.031Z,98636.61
2018-06-03T03:58:17.078Z,98638.45
2018-06-03T04:00:47.072Z,98640.10
2018-06-03T04:03:15.997Z,98632.32
2018-06-03T04:05:45.259Z,98632.80
2018-06-03T04:08:14.212Z,98631.63
2018-06-03T04:10:43.114Z,98634.66
2018-06-03T04:13:13.024Z,98630.66
2018-06-03T04:15:41.991Z,98632.52
2018-06-03T04:18:10.988Z,98627.66
2018-06-03T04:20:39.881Z,98633.06
2018-06-03T04:23:09.473Z,98630.70
2018-06-03T04:25:38.443Z,98627.58
2018-06-03T04:28:07.446Z,98636.02
2018-06-03T04:30:36.588Z,98627.95
2018-06-03T04:33:06.325Z,98630.27
2018-06-03T04:35:35.224Z,98634.44
2018-06-03T04:38:04.349Z,98626.10
2018-06-03T04:40:33.323Z,98630.30
2018-06-03T04:43:02.776Z,98628.23
2018-06-03T04:45:31.719Z,98631.04
2018-06-03T04:48:00.715Z,98625.95
2018-06-03T04:50:29.765Z,98622.80
2018-06-03T04:52:59.324Z,98617.12
2018-06-03T04:55:28.259Z,98621.37
2018-06-03T04:57:57.172Z,98624.04
2018-06-03T05:00:26.224Z,98616.77
2018-06-03T05:02:55.410Z,98619.75
2018-06-03T05:05:24.465Z,98609.05
2018-06-03T05:07:54.500Z,98615.43
2018-06-03T05:10:23.516Z,98614.29
2018-06-03T05:12:52.464Z,98618.41
2018-06-03T05:15:21.510Z,98601.36
2018-06-03T05:17:50.473Z,98607.78
2018-06-03T05:20:19.550Z,98608.20
2018-06-03T05:22:48.472Z,98599.68
2018-06-03T05:25:17.491Z,98600.52
2018-06-03T05:27:46.385Z,98606.12
2018-06-03T05:30:15.868Z,98607.26
2018-06-03T05:32:44.847Z,98604.41
2018-06-03T05:35:13.820Z,98604.61
2018-06-03T05:37:42.881Z,98612.16
2018-06-03T05:40:11.831Z,98613.22
2018-06-03T05:42:40.722Z,98609.19
2018-06-03T05:45:09.712Z,98611.00
2018-06-03T05:47:38.647Z,98605.21
2018-06-03T05:50:07.580Z,98604.69
2018-06-03T05:52:36.616Z,98607.06
2018-06-03T05:55:06.209Z,98606.17
2018-06-03T05:57:35.167Z,98607.19
2018-06-03T06:00:04.339Z,98610.67
2018-06-03T06:02:33.293Z,98610.95
2018-06-03T06:05:02.294Z,98615.78
2018-06-03T06:07:31.444Z,98615.41
2018-06-03T06:10:00.633Z,98611.98
2018-06-03T06:12:29.620Z,98607.84
2018-06-03T06:14:58.888Z,98606.45
2018-06-03T06:17:27.875Z,98600.03
2018-06-03T06:19:56.791Z,98603.91
2018-06-03T06:22:25.939Z,98601.78
2018-06-03T06:24:55.187Z,98603.34
2018-06-03T06:27:24.521Z,98592.56
2018-06-03T06:29:53.663Z,98592.06
2018-06-03T06:32:22.809Z,98585.16
2018-06-03T06:34:51.737Z,98593.27
2018-06-03T06:37:20.908Z,98586.72
2018-06-03T06:39:49.892Z,98585.44
2018-06-03T06:42:18.828Z,98583.80
2018-06-03T06:44:47.929Z,98578.69
2018-06-03T06:47:16.867Z,98577.16
2018-06-03T06:49:45.812Z,98566.78
2018-06-03T06:52:15.633Z,98562.78
2018-06-03T06:54:44.562Z,98561.94
2018-06-03T06:57:13.470Z,98562.33
2018-06-03T06:59:42.480Z,98557.02
2018-06-03T07:02:12.533Z,98558.56
2018-06-03T07:04:41.500Z,98551.72
2018-06-03T07:07:10.492Z,98550.66
2018-06-03T07:09:39.432Z,98550.66
2018-06-03T07:12:08.395Z,98546.28
2018-06-03T07:14:37.409Z,98550.97
2018-06-03T07:17:06.528Z,98539.92
2018-06-03T07:19:36.444Z,98539.58
2018-06-03T07:22:05.573Z,98534.33
2018-06-03T07:24:34.836Z,98529.09
2018-06-03T07:27:04.647Z,98534.67
2018-06-03T07:29:33.611Z,98539.08
2018-06-03T07:32:02.601Z,98541.53
2018-06-03T07:34:31.674Z,98536.83
2018-06-03T07:37:00.833Z,98529.02
2018-06-03T07:39:29.757Z,98527.06
2018-06-03T07:41:58.759Z,98526.96
2018-06-03T07:44:27.844Z,98534.37
2018-06-03T07:46:57.762Z,98527.59
2018-06-03T07:49:26.778Z,98531.34
2018-06-03T07:51:55.769Z,98534.03
2018-06-03T07:54:25.409Z,98531.81
2018-06-03T07:56:54.356Z,98526.14
2018-06-03T07:59:23.397Z,98526.66
2018-06-03T08:01:52.385Z,98531.44
2018-06-03T08:04:21.303Z,98533.00
2018-06-03T08:06:51.326Z,98532.94
2018-06-03T08:09:20.472Z,98527.94
2018-06-03T08:11:49.379Z,98522.14
2018-06-03T08:14:18.363Z,98518.58
2018-06-03T08:16:47.291Z,98520.41
2018-06-03T08:19:16.283Z,98518.78
2018-06-03T08:21:45.280Z,98510.33
2018-06-03T08:24:14.196Z,98516.56
2018-06-03T08:26:43.109Z,98504.98
2018-06-03T08:29:12.207Z,98509.55
2018-06-03T08:31:41.153Z,98502.41
2018-06-03T08:34:10.084Z,98503.97
2018-06-03T08:36:40.014Z,98503.02
2018-06-03T08:39:08.988Z,98506.56
2018-06-03T08:41:40.876Z,98510.02
2018-06-03T08:44:09.832Z,98496.44
2018-06-03T08:46:38.715Z,98491.93
2018-06-03T08:49:07.662Z,98495.80
2018-06-03T08:51:36.564Z,98493.07
2018-06-03T08:54:05.535Z,98494.91
2018-06-03T08:56:34.524Z,98486.50
2018-06-03T08:59:04.084Z,98483.77
2018-06-03T09:01:33.023Z,98476.27
2018-06-03T09:04:02.121Z,98472.12
2018-06-03T09:06:31.030Z,98470.64
2018-06-03T09:09:00.038Z,98470.45
2018-06-03T09:11:30.007Z,98474.22
2018-06-03T09:13:58.994Z,98469.94
2018-06-03T09:16:27.987Z,98472.73
2018-06-03T09:18:57.017Z,98469.73
2018-06-03T09:21:26.012Z,98464.47
2018-06-03T09:23:54.917Z,98460.55
2018-06-03T09:26:24.016Z,98465.01
2018-06-03T09:28:52.984Z,98459.20
2018-06-03T09:31:22.590Z,98458.58
2018-06-03T09:33:51.638Z,98459.48
2018-06-03T09:36:20.608Z,98459.20
2018-06-03T09:38:49.617Z,98459.08
2018-06-03T09:41:18.565Z,98453.80
2018-06-03T09:43:47.553Z,98451.75
2018-06-03T09:46:16.516Z,98444.52
2018-06-03T09:48:45.641Z,98448.77
2018-06-03T09:51:14.883Z,98451.55
2018-06-03T09:53:43.805Z,98448.89
2018-06-03T09:56:12.782Z,98448.33
2018-06-03T09:58:41.680Z,98446.48
2018-06-03T10:01:11.007Z,98449.92
2018-06-03T10:03:40.016Z,98436.28
2018-06-03T10:06:09.712Z,98441.37
2018-06-03T10:08:38.685Z,98438.34
2018-06-03T10:11:07.876Z,98434.16
2018-06-03T10:13:36.797Z,98433.39
2018-06-03T10:16:05.777Z,98424.13
2018-06-03T10:18:35.567Z,98413.52
2018-06-03T10:21:04.510Z,98408.41
2018-06-03T10:23:33.473Z,98405.48
2018-06-03T10:26:02.598Z,98401.95
2018-06-03T10:28:32.305Z,98386.61
2018-06-03T10:31:01.269Z,98388.13
2018-06-03T10:33:30.352Z,98382.26
2018-06-03T10:36:00.088Z,98371.98
2018-06-03T10:38:29.019Z,98363.22
2018-06-03T10:40:58.078Z,98352.63
2018-06-03T10:43:27.750Z,98349.92
2018-06-03T10:45:57.310Z,98352.83
2018-06-03T10:48:26.363Z,98357.64
2018-06-03T10:50:55.300Z,98354.22
2018-06-03T10:53:24.268Z,98356.55
2018-06-03T10:55:53.302Z,98354.98
2018-06-03T10:58:23.243Z,98369.84
2018-06-03T11:00:52.172Z,98370.11
2018-06-03T11:03:21.116Z,98364.39
2018-06-03T11:05:50.046Z,98350.56
2018-06-03T11:08:19.116Z,98335.59
2018-06-03T11:10:48.216Z,98332.16
2018-06-03T11:13:17.808Z,98335.88
2018-06-03T11:15:47.092Z,98345.88
2018-06-03T11:18:16.142Z,98361.06
2018-06-03T11:20:45.062Z,98372.66
2018-06-03T11:23:13.991Z,98419.62
2018-06-03T11:25:43.425Z,98444.55
2018-06-03T11:28:12.380Z,98487.62
2018-06-03T11:30:41.306Z,98521.38
2018-06-03T11:33:10.292Z,98541.84
2018-06-03T11:35:39.832Z,98580.06
2018-06-03T11:38:08.757Z,98595.27
2018-06-03T11:40:37.941Z,98585.42
2018-06-03T11:43:07.704Z,98555.61
2018-06-03T11:45:36.711Z,98546.84
2018-06-03T11:48:06.436Z,98530.23
2018-06-03T11:50:35.389Z,98534.48
2018-06-03T11:53:04.339Z,98527.81
2018-06-03T11:55:33.478Z,98529.81
2018-06-03T11:58:42.553Z,98531.27
2018-06-03T12:01:14.219Z,98523.25
2018-06-03T12:03:45.580Z,98519.65
2018-06-03T12:06:17.657Z,98506.98
2018-06-03T12:08:49.052Z,98504.66
2018-06-03T12:11:21.830Z,98499.06
2018-06-03T12:13:52.580Z,98495.38
2018-06-03T12:16:25.157Z,98488.25
2018-06-03T12:18:57.100Z,98471.53
2018-06-03T12:21:29.118Z,98473.44
2018-06-03T12:24:01.007Z,98470.43
2018-06-03T12:26:30.116Z,98467.25
2018-06-03T12:28:59.134Z,98465.19
2018-06-03T12:31:28.701Z,98457.30
2018-06-03T12:33:57.684Z,98443.92
2018-06-03T12:36:27.304Z,98439.08
2018-06-03T12:38:56.235Z,98434.59
2018-06-03T12:41:25.921Z,98423.02
2018-06-03T12:43:54.926Z,98418.80
2018-06-03T12:46:23.905Z,98406.00
2018-06-03T12:48:53.040Z,98400.21
2018-06-03T12:51:21.958Z,98392.19
2018-06-03T12:53:51.492Z,98386.73
2018-06-03T12:56:20.547Z,98376.94
2018-06-03T12:58:49.540Z,98367.67
2018-06-03T13:01:18.500Z,98373.88
2018-06-03T13:03:47.540Z,98382.84
2018-06-03T13:06:17.468Z,98397.37
2018-06-03T13:08:46.592Z,98389.54
2018-06-03T13:11:15.628Z,98384.39
2018-06-03T13:13:44.621Z,98376.17
2018-06-03T13:16:13.581Z,98370.55
2018-06-03T13:18:42.812Z,98369.75
2018-06-03T13:21:11.787Z,98366.64
2018-06-03T13:23:40.788Z,98358.28
2018-06-03T13:26:09.770Z,98357.64
2018-06-03T13:28:39.372Z,98352.31
2018-06-03T13:31:08.301Z,98343.73
2018-06-03T13:33:37.317Z,98340.07
2018-06-03T13:36:06.608Z,98341.02
2018-06-03T13:38:35.617Z,98335.41
2018-06-03T13:41:04.824Z,98330.35
2018-06-03T13:43:33.792Z,98324.00
2018-06-03T13:46:02.913Z,98321.23
2018-06-03T13:48:31.909Z,98316.55
2018-06-03T13:51:00.876Z,98322.34
2018-06-03T13:53:29.854Z,98319.03
2018-06-03T13:55:58.979Z,98316.48
2018-06-03T13:58:27.962Z,98316.36
2018-06-03T14:00:56.901Z,98306.27
2018-06-03T14:03:26.501Z,98315.75
2018-06-03T14:05:55.511Z,98309.56
2018-06-03T14:08:24.690Z,98316.05
2018-06-03T14:10:53.852Z,98304.61
2018-06-03T14:13:22.796Z,98296.41
2018-06-03T14:15:51.772Z,98291.03
2018-06-03T14:18:20.790Z,98289.72
2018-06-03T14:20:50.415Z,98280.36
2018-06-03T14:23:20.174Z,98276.00
2018-06-03T14:25:49.239Z,98275.23
2018-06-03T14:28:19.021Z,98278.52
2018-06-03T14:30:47.996Z,98275.52
2018-06-03T14:33:17.088Z,98265.58
2018-06-03T14:35:46.070Z,98263.36
2018-06-03T14:38:15.047Z,98261.72
2018-06-03T14:40:44.601Z,98258.41
2018-06-03T14:43:13.636Z,98248.47
2018-06-03T14:45:42.688Z,98247.09
2018-06-03T14:48:11.881Z,98251.50
2018-06-03T14:50:40.842Z,98250.41
2018-06-03T14:53:09.812Z,98247.06
2018-06-03T14:55:39.671Z,98257.83
2018-06-03T14:58:08.581Z,98260.61
2018-06-03T15:00:37.495Z,98261.16
2018-06-03T15:03:06.488Z,98259.80
2018-06-03T15:05:35.398Z,98261.72
2018-06-03T15:08:04.426Z,98257.30
2018-06-03T15:10:33.551Z,98253.72
2018-06-03T15:13:02.528Z,98253.41
2018-06-03T15:15:32.021Z,98250.36
2018-06-03T15:18:01.722Z,98251.77
2018-06-03T15:20:31.596Z,98254.80
2018-06-03T15:23:00.544Z,98257.84
2018-06-03T15:25:29.605Z,98254.25
2018-06-03T15:27:58.551Z,98250.11
2018-06-03T15:30:27.585Z,98247.64
2018-06-03T15:32:57.378Z,98243.77
2018-06-03T15:35:26.320Z,98245.97
2018-06-03T15:37:55.256Z,98243.78
2018-06-03T15:40:24.347Z,98237.70
2018-06-03T15:42:53.301Z,98240.46
2018-06-03T15:45:22.555Z,98235.48
2018-06-03T15:47:51.608Z,98241.01
2018-06-03T15:50:20.656Z,98241.01
2018-06-03T15:52:49.694Z,98237.69
2018-06-03T15:55:18.740Z,98238.81
2018-06-03T15:57:47.727Z,98238.25
2018-06-03T16:00:16.666Z,98239.92
2018-06-03T16:02:45.762Z,98241.86
2018-06-03T16:05:14.692Z,98241.29
2018-06-03T16:07:43.611Z,98234.38
2018-06-03T16:10:12.592Z,98228.30
2018-06-03T16:12:41.536Z,98224.45
2018-06-03T16:15:12.424Z,98224.72
2018-06-03T16:17:41.347Z,98228.31
2018-06-03T16:20:10.301Z,98221.70
2018-06-03T16:22:39.337Z,98224.45
2018-06-03T16:25:09.418Z,98225.02
2018-06-03T16:27:38.376Z,98229.70
2018-06-03T16:30:07.430Z,98229.98
2018-06-03T16:32:36.408Z,98237.15
2018-06-03T16:35:06.282Z,98235.77
2018-06-03T16:37:35.441Z,98239.09
2018-06-03T16:40:04.715Z,98225.86
2018-06-03T16:42:33.718Z,98227.79
2018-06-03T16:45:02.789Z,98227.24
2018-06-03T16:47:31.754Z,98228.06
2018-06-03T16:50:01.209Z,98225.59
2018-06-03T16:52:30.330Z,98223.92
2018-06-03T16:54:59.260Z,98228.89
2018-06-03T16:57:28.401Z,98234.41
2018-06-03T16:59:57.508Z,98233.58
2018-06-03T17:02:26.742Z,98231.65
2018-06-03T17:04:55.718Z,98234.11
2018-06-03T17:07:24.762Z,98236.33
2018-06-03T17:09:53.815Z,98239.91
2018-06-03T17:12:23.431Z,98233.79
2018-06-03T17:14:52.466Z,98242.90
2018-06-03T17:17:21.408Z,98236.81
2018-06-03T17:19:50.664Z,98231.28
2018-06-03T17:22:19.657Z,98235.12
2018-06-03T17:24:48.573Z,98242.54
2018-06-03T17:27:17.515Z,98244.98
2018-06-03T17:29:46.521Z,98245.45
2018-06-03T17:32:15.454Z,98249.01
2018-06-03T17:34:44.425Z,98251.19
2018-06-03T17:37:13.476Z,98247.31
2018-06-03T17:39:42.389Z,98249.16
2018-06-03T17:42:11.335Z,98250.80
2018-06-03T17:44:40.392Z,98239.45
2018-06-03T17:47:09.352Z,98231.45
2018-06-03T17:49:38.366Z,98228.11
2018-06-03T17:52:07.356Z,98238.53
2018-06-03T17:54:38.061Z,98248.05
2018-06-03T17:57:07.146Z,98247.45
2018-06-03T17:59:36.162Z,98241.85
2018-06-03T18:02:05.212Z,98244.84
2018-06-03T18:04:34.207Z,98239.23
2018-06-03T18:07:03.163Z,98245.16
2018-06-03T18:09:32.091Z,98247.00
2018-06-03T18:12:01.133Z,98239.73
2018-06-03T18:14:30.112Z,98239.89
2018-06-03T18:16:59.147Z,98238.92
2018-06-03T18:19:28.367Z,98240.37
2018-06-03T18:21:57.304Z,98241.89
2018-06-03T18:24:26.264Z,98243.94
2018-06-03T18:26:55.228Z,98242.77
2018-06-03T18:29:24.280Z,98246.49
2018-06-03T18:31:53.218Z,98247.25
2018-06-03T18:34:22.256Z,98244.70
2018-06-03T18:36:51.220Z,98244.92
2018-06-03T18:39:20.548Z,98240.17
2018-06-03T18:41:49.593Z,98243.99
2018-06-03T18:44:18.709Z,98237.89
2018-06-03T18:46:47.825Z,98237.05
2018-06-03T18:49:17.024Z,98236.48
2018-06-03T18:51:45.984Z,98243.48
2018-06-03T18:54:14.908Z,98247.05
2018-06-03T18:56:44.894Z,98248.11
2018-06-03T18:59:13.895Z,98251.84
2018-06-03T19:01:43.348Z,98253.48
2018-06-03T19:04:13.090Z,98261.67
2018-06-03T19:06:42.035Z,98261.02
2018-06-03T19:09:11.077Z,98263.95
2018-06-03T19:11:40.654Z,98262.62
2018-06-03T19:14:09.672Z,98254.81
2018-06-03T19:16:39.459Z,98252.45
2018-06-03T19:19:08.498Z,98255.08
2018-06-03T19:21:37.452Z,98254.19
2018-06-03T19:24:07.278Z,98250.52
2018-06-03T19:26:37.442Z,98252.48
2018-06-03T19:29:06.581Z,98251.02
2018-06-03T19:31:35.554Z,98249.05
2018-06-03T19:34:05.360Z,98246.81
2018-06-03T19:36:34.352Z,98246.25
2018-06-03T19:39:05.095Z,98248.19
2018-06-03T19:41:34.945Z,98250.09
2018-06-03T19:44:03.908Z,98258.08
2018-06-03T19:46:32.927Z,98249.76
2018-06-03T19:49:01.888Z,98256.11
2018-06-03T19:51:30.801Z,98252.89
2018-06-03T19:54:00.072Z,98251.31
2018-06-03T19:56:29.020Z,98252.33
2018-06-03T19:58:58.022Z,98253.36
2018-06-03T20:01:26.997Z,98249.96
2018-06-03T20:03:56.052Z,98251.73
2018-06-03T20:06:25.548Z,98252.23
2018-06-03T20:08:54.455Z,98250.00
2018-06-03T20:11:26.789Z,98240.87
2018-06-03T20:13:58.611Z,98237.77
2018-06-03T20:16:30.701Z,98243.55
2018-06-03T20:19:03.276Z,98242.45
2018-06-03T20:21:34.312Z,98243.92
2018-06-03T20:24:03.344Z,98239.11
2018-06-03T20:26:32.947Z,98241.74
2018-06-03T20:29:03.556Z,98230.97
2018-06-03T20:31:33.095Z,98223.11
2018-06-03T20:34:02.016Z,98217.72
2018-06-03T20:36:30.975Z,98221.64
2018-06-03T20:39:01.703Z,98218.75
2018-06-03T20:41:32.977Z,98215.00
2018-06-03T20:44:01.942Z,98217.77
2018-06-03T20:46:30.857Z,98214.81
2018-06-03T20:48:59.836Z,98218.16
2018-06-03T20:51:28.817Z,98210.48
2018-06-03T20:53:57.758Z,98217.13
2018-06-03T20:56:26.803Z,98213.61
2018-06-03T20:58:56.644Z,98213.09
2018-06-03T21:01:28.624Z,98221.95
2018-06-03T21:03:57.663Z,98232.43
2018-06-03T21:06:27.404Z,98232.73
2018-06-03T21:08:56.443Z,98241.50
2018-06-03T21:11:25.404Z,98233.99
2018-06-03T21:13:54.348Z,98237.73
2018-06-03T21:16:23.295Z,98229.69
2018-06-03T21:18:53.092Z,98229.39
2018-06-03T21:21:22.037Z,98222.80
2018-06-03T21:23:51.102Z,98228.73
2018-06-03T21:26:20.009Z,98224.50
2018-06-03T21:28:48.958Z,98220.60
2018-06-03T21:31:17.996Z,98233.12
2018-06-03T21:33:46.944Z,98230.34
2018-06-03T21:36:15.894Z,98234.07
2018-06-03T21:38:45.025Z,98238.02
2018-06-03T21:41:15.138Z,98234.33
2018-06-03T21:43:44.676Z,98241.58
2018-06-03T21:46:13.645Z,98242.85
2018-06-03T21:48:42.593Z,98234.59
2018-06-03T21:51:11.647Z,98237.27
2018-06-03T21:53:41.576Z,98241.55
2018-06-03T21:56:11.181Z,98245.52
2018-06-03T21:58:40.153Z,98230.84
2018-06-03T22:01:10.670Z,98230.67
2018-06-03T22:03:39.940Z,98239.52
2018-06-03T22:06:08.871Z,98237.88
2018-06-03T22:08:37.877Z,98247.13
2018-06-03T22:11:06.971Z,98247.31
2018-06-03T22:13:36.061Z,98250.01
2018-06-03T22:16:05.020Z,98258.75
2018-06-03T22:18:34.026Z,98260.00
2018-06-03T22:21:02.961Z,98263.53
2018-06-03T22:23:31.951Z,98259.31
2018-06-03T22:26:01.585Z,98258.70
2018-06-03T22:28:32.265Z,98258.97
2018-06-03T22:31:01.414Z,98252.59
2018-06-03T22:33:30.361Z,98254.41
2018-06-03T22:35:59.349Z,98250.59
2018-06-03T22:38:28.405Z,98245.12
2018-06-03T22:40:57.574Z,98244.56
2018-06-03T22:43:26.574Z,98241.60
2018-06-03T22:45:55.563Z,98241.11
2018-06-03T22:48:25.043Z,98245.03
2018-06-03T22:50:54.063Z,98245.33
2018-06-03T22:53:24.016Z,98242.94
2018-06-03T22:55:53.019Z,98247.12
2018-06-03T22:58:21.959Z,98244.66
2018-06-03T23:00:51.001Z,98252.33
2018-06-03T23:03:19.942Z,98241.34
2018-06-03T23:05:50.631Z,98249.02
2018-06-03T23:08:19.625Z,98237.35
2018-06-03T23:10:48.589Z,98230.17
2018-06-03T23:13:17.641Z,98237.38
2018-06-03T23:15:46.720Z,98228.78
2018-06-03T23:18:16.493Z,98223.98
2018-06-03T23:20:45.797Z,98231.70
2018-06-03T23:23:14.780Z,98229.27
2018-06-03T23:25:43.727Z,98231.41
2018-06-03T23:28:12.649Z,98228.97
2018-06-03T23:30:41.696Z,98226.23
2018-06-03T23:33:10.592Z,98227.30
2018-06-03T23:35:39.528Z,98230.52
2018-06-03T23:38:08.528Z,98222.55
2018-06-03T23:40:37.469Z,98213.28
2018-06-03T23:43:07.035Z,98209.70
2018-06-03T23:45:36.032Z,98213.39
2018-06-03T23:48:05.070Z,98211.01
2018-06-03T23:50:34.071Z,98212.68
2018-06-03T23:53:03.344Z,98203.64
2018-06-03T23:55:32.352Z,98205.92
2018-06-03T23:58:01.312Z,98207.41
